Time;durP1;ratioP1;P1;durP2;ratioP2;P2;SDS_P1;SDS_P2;PMS_P1;PMS_P2;Temp;Humidity;BMP_temperature;BMP_pressure;BME280_temperature;BME280_humidity;BME280_pressure;Samples;Min_cycle;Max_cycle;Signal;HPM_P1;HPM_P2
2021/03/21 00:02:04;;;;;;;6.45;3.97;;;3.80;99.90;;;;;;4901599;29;20060;-92
2021/03/21 00:04:30;;;;;;;8.32;5.13;;;3.80;99.90;;;;;;4901680;29;20028;-92
2021/03/21 00:06:55;;;;;;;5.90;4.05;;;3.70;99.90;;;;;;4902813;29;20111;-91
2021/03/21 00:09:21;;;;;;;10.13;4.97;;;3.80;99.90;;;;;;4904716;29;20031;-91
2021/03/21 00:11:47;;;;;;;9.25;4.72;;;3.80;99.90;;;;;;4905196;29;20050;-92
2021/03/21 00:14:12;;;;;;;9.35;4.18;;;3.80;99.90;;;;;;4904956;29;20056;-92
2021/03/21 00:16:38;;;;;;;5.88;3.92;;;4.00;99.90;;;;;;4904936;29;20027;-91
2021/03/21 00:19:06;;;;;;;6.95;4.22;;;4.10;99.90;;;;;;4904758;29;20024;-92
2021/03/21 00:21:32;;;;;;;6.60;4.13;;;4.00;99.90;;;;;;4904618;29;20396;-92
2021/03/21 00:23:58;;;;;;;8.85;3.85;;;3.90;99.90;;;;;;4904477;29;20024;-92
2021/03/21 00:26:24;;;;;;;6.07;4.00;;;3.80;99.90;;;;;;4904207;29;20063;-92
2021/03/21 00:28:50;;;;;;;9.48;4.03;;;3.80;99.90;;;;;;4904640;29;20128;-92
2021/03/21 00:31:17;;;;;;;7.95;4.40;;;3.80;99.90;;;;;;4904916;29;20071;-92
2021/03/21 00:33:43;;;;;;;8.32;3.90;;;3.80;99.90;;;;;;4921231;29;20441;-92
2021/03/21 00:36:14;;;;;;;8.63;3.78;;;3.80;99.90;;;;;;4921400;29;20024;-92
2021/03/21 00:38:43;;;;;;;7.60;3.88;;;3.70;99.90;;;;;;4904653;29;20511;-92
2021/03/21 00:41:12;;;;;;;7.78;4.45;;;3.80;99.90;;;;;;4904462;29;20119;-92
2021/03/21 00:43:38;;;;;;;6.32;4.10;;;3.70;99.90;;;;;;4921330;29;20060;-92
2021/03/21 00:46:05;;;;;;;6.82;3.75;;;3.80;99.90;;;;;;4904548;29;20024;-91
2021/03/21 00:48:34;;;;;;;5.88;3.75;;;3.90;99.90;;;;;;4904436;29;20083;-92
2021/03/21 00:51:00;;;;;;;7.47;4.00;;;3.80;99.90;;;;;;4904586;29;20024;-92
2021/03/21 00:53:26;;;;;;;7.45;4.47;;;3.70;99.90;;;;;;4904269;29;20071;-92
2021/03/21 00:55:52;;;;;;;7.47;4.60;;;3.70;99.90;;;;;;4920822;29;20452;-92
2021/03/21 00:58:19;;;;;;;10.82;4.60;;;3.70;99.90;;;;;;4904391;29;20025;-91
2021/03/21 01:00:51;;;;;;;7.63;4.72;;;3.70;99.90;;;;;;4904071;29;20547;-92
2021/03/21 01:03:18;;;;;;;8.43;4.90;;;3.70;99.90;;;;;;4904295;29;20103;-91
2021/03/21 01:05:57;;;;;;;7.28;4.00;;;3.70;99.90;;;;;;4903911;29;20104;-92
2021/03/21 01:08:25;;;;;;;7.75;3.95;;;3.90;99.90;;;;;;4903933;29;20385;-91
2021/03/21 01:10:55;;;;;;;6.35;4.07;;;3.90;99.90;;;;;;4903660;29;20024;-92
2021/03/21 01:13:21;;;;;;;8.23;4.20;;;3.80;99.90;;;;;;4904217;29;20077;-92
2021/03/21 01:15:47;;;;;;;7.40;4.13;;;3.80;99.90;;;;;;4920113;29;20032;-92
2021/03/21 01:18:25;;;;;;;6.38;4.05;;;3.80;99.90;;;;;;4919661;29;20034;-92
2021/03/21 01:20:52;;;;;;;9.27;4.25;;;3.80;99.90;;;;;;4903663;29;20028;-92
2021/03/21 01:23:18;;;;;;;8.18;4.25;;;3.90;99.90;;;;;;4903651;29;20461;-92
2021/03/21 01:25:44;;;;;;;6.63;3.80;;;4.00;99.90;;;;;;4920583;29;20055;-92
2021/03/21 01:28:29;;;;;;;6.53;3.78;;;3.90;99.90;;;;;;4919792;29;20179;-92
2021/03/21 01:30:57;;;;;;;5.38;4.05;;;3.90;99.90;;;;;;4903715;29;20032;-92
2021/03/21 01:33:25;;;;;;;11.68;4.18;;;3.80;99.90;;;;;;4903473;29;20036;-92
2021/03/21 01:35:52;;;;;;;7.53;4.10;;;3.70;99.90;;;;;;4920244;29;20107;-92
2021/03/21 01:38:19;;;;;;;8.15;4.30;;;3.60;99.90;;;;;;4903355;29;20032;-92
2021/03/21 01:40:46;;;;;;;7.88;4.15;;;3.70;99.90;;;;;;4903439;29;20500;-92
2021/03/21 01:43:13;;;;;;;7.97;3.72;;;3.60;99.90;;;;;;4903388;29;20484;-92
2021/03/21 01:45:44;;;;;;;5.40;3.45;;;3.70;99.90;;;;;;4903254;29;20032;-91
2021/03/21 01:48:34;;;;;;;6.05;3.88;;;3.80;99.90;;;;;;4920361;29;20024;-92
2021/03/21 01:51:17;;;;;;;6.57;4.15;;;3.90;99.90;;;;;;4903484;29;20047;-92
2021/03/21 01:53:46;;;;;;;6.20;3.50;;;3.80;99.90;;;;;;4904135;29;20028;-92
2021/03/21 01:56:13;;;;;;;6.25;3.50;;;3.70;99.90;;;;;;4902854;29;20122;-92
2021/03/21 01:58:42;;;;;;;6.03;3.78;;;3.70;99.90;;;;;;4903299;29;20043;-92
2021/03/21 02:01:21;;;;;;;6.22;3.90;;;3.80;99.90;;;;;;4903934;29;20062;-92
2021/03/21 02:03:47;;;;;;;5.28;3.60;;;3.80;99.90;;;;;;4902928;29;20084;-92
2021/03/21 02:06:20;;;;;;;7.78;3.97;;;3.90;99.90;;;;;;4903110;29;20024;-92
2021/03/21 02:08:53;;;;;;;7.47;4.00;;;3.80;99.90;;;;;;4919838;29;20103;-92
2021/03/21 02:11:43;;;;;;;5.60;3.63;;;3.80;99.90;;;;;;4902834;29;20027;-92
2021/03/21 02:14:34;;;;;;;5.88;3.42;;;3.80;99.90;;;;;;4902611;29;20024;-92
2021/03/21 02:17:28;;;;;;;4.93;3.28;;;3.70;99.90;;;;;;4902676;29;20036;-92
2021/03/21 02:20:21;;;;;;;5.60;3.10;;;3.80;99.90;;;;;;4902844;29;20053;-92
2021/03/21 02:22:57;;;;;;;6.95;3.42;;;3.90;99.90;;;;;;4919724;29;20024;-92
2021/03/21 02:25:50;;;;;;;7.00;3.83;;;3.90;99.90;;;;;;4902614;29;20028;-92
2021/03/21 02:28:41;;;;;;;6.60;3.67;;;3.80;99.90;;;;;;4902503;29;20047;-92
2021/03/21 02:31:29;;;;;;;4.97;3.15;;;3.70;99.90;;;;;;4889988;29;20131;-92
2021/03/21 02:34:11;;;;;;;5.57;3.47;;;3.80;99.90;;;;;;4890235;29;20043;-92
2021/03/21 02:36:49;;;;;;;5.70;3.60;;;3.90;99.90;;;;;;4902164;29;20028;-92
2021/03/21 02:39:24;;;;;;;6.50;3.80;;;3.80;98.80;;;;;;4902182;29;20024;-91
2021/03/21 02:42:00;;;;;;;4.50;3.17;;;3.70;99.90;;;;;;4901748;29;20123;-92
2021/03/21 02:44:53;;;;;;;8.68;3.63;;;3.80;99.90;;;;;;4902030;29;20465;-91
2021/03/21 02:47:25;;;;;;;6.25;3.80;;;3.70;99.90;;;;;;4883026;29;20087;-92
2021/03/21 02:49:54;;;;;;;7.05;3.70;;;3.70;99.90;;;;;;4918964;29;20020;-92
2021/03/21 02:52:26;;;;;;;6.55;3.50;;;3.70;99.90;;;;;;4901778;29;20028;-92
2021/03/21 02:55:22;;;;;;;33.25;10.82;;;3.60;99.90;;;;;;4901740;29;20480;-92
2021/03/21 02:57:54;;;;;;;9.80;4.35;;;3.60;99.90;;;;;;4919088;29;20104;-92
2021/03/21 03:00:32;;;;;;;7.80;4.05;;;3.60;99.90;;;;;;4902195;29;20054;-92
2021/03/21 03:03:01;;;;;;;7.10;4.20;;;3.60;99.90;;;;;;4902049;29;20119;-92
2021/03/21 03:05:30;;;;;;;9.25;3.72;;;3.70;99.90;;;;;;4902336;29;20049;-91
2021/03/21 03:08:13;;;;;;;4.93;3.25;;;3.80;99.90;;;;;;4901719;29;20028;-93
2021/03/21 03:10:46;;;;;;;8.25;3.63;;;3.70;99.90;;;;;;4902042;29;20025;-92
2021/03/21 03:13:30;;;;;;;5.75;2.90;;;3.70;99.90;;;;;;4901858;29;20118;-91
2021/03/21 03:16:01;;;;;;;;;;;3.70;99.90;;;;;;4902306;29;20060;-91
2021/03/21 03:19:04;;;;;;;6.03;3.55;;;3.70;99.90;;;;;;4918490;29;19914;-91
2021/03/21 03:21:40;;;;;;;6.40;3.65;;;3.80;99.90;;;;;;4918562;29;20028;-92
2021/03/21 03:24:27;;;;;;;5.55;3.20;;;3.70;99.90;;;;;;4901770;29;20091;-92
2021/03/21 03:27:02;;;;;;;8.15;3.58;;;3.70;99.90;;;;;;4901800;29;20118;-92
2021/03/21 03:29:36;;;;;;;5.80;3.30;;;3.80;99.90;;;;;;4901743;29;20044;-92
2021/03/21 03:32:04;;;;;;;;;;;3.70;99.90;;;;;;4902367;29;20475;-92
2021/03/21 03:34:31;;;;;;;7.00;3.30;;;3.60;99.90;;;;;;4918548;29;20315;-91
2021/03/21 03:36:59;;;;;;;7.55;2.85;;;3.60;99.90;;;;;;4918392;29;20039;-92
2021/03/21 03:39:25;;;;;;;5.43;3.40;;;3.60;99.90;;;;;;4918230;29;20437;-91
2021/03/21 03:42:07;;;;;;;5.18;3.30;;;3.60;99.90;;;;;;4902692;29;20036;-92
2021/03/21 03:44:38;;;;;;;5.20;3.00;;;3.70;99.90;;;;;;4905101;29;20052;-92
2021/03/21 03:47:17;;;;;;;7.97;3.03;;;3.70;99.90;;;;;;4921787;29;20552;-92
2021/03/21 03:49:49;;;;;;;5.90;3.40;;;3.70;99.90;;;;;;4905245;29;20024;-92
2021/03/21 03:52:28;;;;;;;9.10;3.33;;;3.60;99.90;;;;;;4904627;29;20028;-92
2021/03/21 03:55:02;;;;;;;7.45;3.45;;;3.70;99.90;;;;;;4904882;29;20069;-91
2021/03/21 03:57:41;;;;;;;4.93;3.28;;;3.70;99.90;;;;;;4904578;29;20511;-91
2021/03/21 04:00:14;;;;;;;6.15;3.30;;;3.80;99.90;;;;;;4904970;29;20511;-91
2021/03/21 04:03:01;;;;;;;7.95;3.47;;;3.80;99.90;;;;;;4904564;29;20031;-91
2021/03/21 04:05:59;;;;;;;5.53;3.10;;;3.70;99.90;;;;;;4921839;29;20032;-92
2021/03/21 04:08:46;;;;;;;6.13;3.60;;;3.60;99.90;;;;;;4854590;29;20083;-92
2021/03/21 04:11:36;;;;;;;4.82;3.33;;;3.50;99.90;;;;;;4904843;29;20051;-92
2021/03/21 04:14:08;;;;;;;5.63;3.47;;;3.50;99.90;;;;;;4922215;29;20023;-92
2021/03/21 04:16:42;;;;;;;5.25;3.47;;;3.60;99.90;;;;;;4922159;29;20098;-92
2021/03/21 04:19:11;;;;;;;4.88;3.45;;;3.60;99.90;;;;;;4905032;29;20087;-92
2021/03/21 04:21:59;;;;;;;6.47;3.40;;;3.50;99.90;;;;;;4905598;29;20029;-92
2021/03/21 04:24:40;;;;;;;6.53;3.42;;;3.70;99.90;;;;;;4904888;29;20095;-92
2021/03/21 04:27:21;;;;;;;5.85;3.35;;;3.50;99.90;;;;;;4905455;29;20487;-91
2021/03/21 04:30:02;;;;;;;6.47;3.45;;;3.40;99.90;;;;;;4904290;29;20032;-92
2021/03/21 04:32:43;;;;;;;5.78;3.17;;;3.40;99.90;;;;;;4904538;29;20035;-92
2021/03/21 04:35:17;;;;;;;5.53;3.33;;;3.50;99.90;;;;;;4904360;29;20036;-92
2021/03/21 04:37:47;;;;;;;6.47;2.97;;;3.50;99.90;;;;;;4904592;29;20024;-92
2021/03/21 04:40:15;;;;;;;6.50;3.47;;;3.60;99.90;;;;;;4921269;29;20075;-91
2021/03/21 04:43:05;;;;;;;4.80;3.08;;;3.70;99.90;;;;;;4904127;29;20024;-92
2021/03/21 04:45:34;;;;;;;5.80;3.13;;;3.80;99.90;;;;;;4904282;29;20039;-91
2021/03/21 04:48:01;;;;;;;6.25;3.05;;;3.80;99.90;;;;;;4904253;29;20040;-92
2021/03/21 04:50:32;;;;;;;6.90;3.17;;;3.70;99.90;;;;;;4904142;29;20048;-91
2021/03/21 04:53:07;;;;;;;4.93;3.03;;;3.80;99.90;;;;;;4919854;29;20028;-92
2021/03/21 04:55:45;;;;;;;7.28;2.75;;;3.90;99.90;;;;;;4904182;29;20028;-92
2021/03/21 04:58:49;;;;;;;6.15;3.00;;;3.90;99.90;;;;;;4904090;29;20059;-92
2021/03/21 05:01:23;;;;;;;4.38;3.05;;;3.80;99.90;;;;;;4826209;29;20057;-92
2021/03/21 05:04:08;;;;;;;4.60;3.20;;;3.80;99.90;;;;;;4909034;29;20047;-92
2021/03/21 05:07:00;;;;;;;4.43;3.08;;;3.60;99.90;;;;;;4903492;29;20404;-92
2021/03/21 05:09:36;;;;;;;5.95;3.10;;;3.70;99.90;;;;;;4920689;29;20032;-92
2021/03/21 05:12:09;;;;;;;6.88;3.38;;;3.70;99.90;;;;;;4904159;29;20031;-92
2021/03/21 05:14:40;;;;;;;4.95;3.30;;;3.70;99.90;;;;;;4903857;29;20036;-92
2021/03/21 05:17:16;;;;;;;4.22;3.20;;;3.80;99.90;;;;;;4920554;29;20079;-92
2021/03/21 05:20:08;;;;;;;4.75;3.05;;;3.70;99.90;;;;;;4903715;29;20021;-91
2021/03/21 05:22:41;;;;;;;6.15;3.20;;;3.70;99.90;;;;;;4862999;29;20047;-92
2021/03/21 05:25:16;;;;;;;6.20;2.88;;;3.70;99.90;;;;;;4903850;29;20468;-92
2021/03/21 05:27:45;;;;;;;5.90;3.45;;;3.50;99.90;;;;;;4903421;29;20047;-91
2021/03/21 05:30:18;;;;;;;5.55;2.92;;;3.40;99.90;;;;;;4903552;29;20024;-92
2021/03/21 05:32:49;;;;;;;6.75;4.00;;;3.50;99.90;;;;;;4920044;29;20032;-91
2021/03/21 05:35:22;;;;;;;5.75;3.00;;;3.50;99.90;;;;;;4903409;29;20091;-92
2021/03/21 05:37:53;;;;;;;5.90;3.07;;;3.50;99.90;;;;;;4903517;29;20036;-91
2021/03/21 05:40:34;;;;;;;5.35;3.25;;;3.70;99.90;;;;;;4903350;29;20645;-92
2021/03/21 05:43:27;;;;;;;5.65;2.58;;;3.70;99.90;;;;;;4920634;29;20039;-91
2021/03/21 05:46:11;;;;;;;8.00;3.63;;;3.60;99.90;;;;;;4903259;29;20024;-91
2021/03/21 05:48:58;;;;;;;8.35;3.00;;;3.70;99.90;;;;;;4902998;29;20098;-92
2021/03/21 05:51:57;;;;;;;4.88;2.90;;;3.60;99.90;;;;;;4903098;29;20031;-92
2021/03/21 05:54:54;;;;;;;5.80;3.17;;;3.70;99.90;;;;;;4902955;29;20024;-92
2021/03/21 05:57:35;;;;;;;6.38;3.00;;;3.60;99.90;;;;;;4903032;29;20462;-93
2021/03/21 06:00:11;;;;;;;4.88;3.13;;;3.70;99.90;;;;;;4903052;29;20028;-92
2021/03/21 06:02:40;;;;;;;4.20;2.63;;;3.70;99.90;;;;;;4919815;29;20088;-92
2021/03/21 06:05:43;;;;;;;5.95;3.15;;;3.70;99.90;;;;;;4902147;29;20454;-92
2021/03/21 06:08:17;;;;;;;4.63;2.88;;;3.70;99.90;;;;;;4902744;29;20503;-89
2021/03/21 06:11:04;;;;;;;4.80;3.33;;;3.70;99.90;;;;;;4903022;29;20159;-91
2021/03/21 06:13:50;;;;;;;4.93;2.92;;;3.80;99.90;;;;;;4902845;29;20035;-92
2021/03/21 06:17:03;;;;;;;4.63;3.00;;;3.80;99.90;;;;;;4902810;29;20365;-91
2021/03/21 06:20:01;;;;;;;3.28;2.47;;;3.70;99.90;;;;;;4851773;29;20063;-92
2021/03/21 06:22:53;;;;;;;5.32;3.03;;;3.70;99.90;;;;;;4884492;29;20072;-92
2021/03/21 06:25:31;;;;;;;3.90;2.90;;;3.80;99.90;;;;;;4902698;29;20123;-92
2021/03/21 06:28:03;;;;;;;5.95;3.05;;;3.80;99.90;;;;;;4902408;29;20136;-92
2021/03/21 06:30:37;;;;;;;3.83;2.70;;;3.80;99.90;;;;;;4919572;29;20103;-92
2021/03/21 06:33:38;;;;;;;5.47;2.97;;;3.70;99.90;;;;;;4901992;29;20459;-91
2021/03/21 06:36:12;;;;;;;4.53;2.65;;;3.80;99.90;;;;;;4902097;29;20500;-92
2021/03/21 06:39:23;;;;;;;4.75;3.00;;;3.90;99.90;;;;;;4902411;29;20024;-92
2021/03/21 06:42:01;;;;;;;5.75;2.63;;;3.90;99.90;;;;;;4902742;29;20369;-91
2021/03/21 06:45:03;;;;;;;4.75;2.88;;;3.90;99.90;;;;;;4902878;29;20111;-92
2021/03/21 06:47:40;;;;;;;4.35;2.63;;;3.90;99.90;;;;;;4902307;29;20074;-92
2021/03/21 06:50:41;;;;;;;5.10;2.97;;;3.90;99.90;;;;;;4902328;29;20504;-92
2021/03/21 06:53:09;;;;;;;5.28;2.47;;;3.90;99.90;;;;;;4902104;29;20035;-92
2021/03/21 06:55:41;;;;;;;5.18;2.80;;;4.00;99.90;;;;;;4902116;29;20060;-92
2021/03/21 06:58:10;;;;;;;6.15;3.05;;;4.00;99.90;;;;;;4902204;29;20110;-91
2021/03/21 07:00:44;;;;;;;5.00;2.67;;;4.10;99.90;;;;;;4919113;29;20032;-91
2021/03/21 07:03:42;;;;;;;6.18;3.10;;;4.00;99.90;;;;;;4901984;29;20047;-92
2021/03/21 07:06:36;;;;;;;7.38;2.60;;;4.00;99.90;;;;;;4902267;29;20032;-91
2021/03/21 07:09:20;;;;;;;4.07;2.60;;;4.00;99.90;;;;;;4902082;29;20459;-92
2021/03/21 07:12:24;;;;;;;4.60;2.65;;;4.10;99.90;;;;;;4902051;29;20064;-91
2021/03/21 07:15:13;;;;;;;4.35;2.83;;;3.90;99.90;;;;;;4902034;29;20043;-91
2021/03/21 07:17:54;;;;;;;6.97;3.45;;;3.80;99.90;;;;;;4904814;29;20016;-91
2021/03/21 07:20:47;;;;;;;5.18;3.35;;;3.80;99.90;;;;;;4905877;29;20031;-92
2021/03/21 07:23:44;;;;;;;4.78;2.70;;;3.70;99.90;;;;;;4922401;29;20028;-92
2021/03/21 07:26:55;;;;;;;7.25;3.90;;;3.90;99.90;;;;;;4874487;29;20183;-92
2021/03/21 07:29:23;;;;;;;77.22;19.58;;;3.80;99.90;;;;;;4894828;29;20047;-91
2021/03/21 07:32:12;;;;;;;7.03;3.78;;;3.80;99.90;;;;;;4905541;29;20084;-91
2021/03/21 07:35:00;;;;;;;6.63;3.58;;;3.70;99.90;;;;;;4862721;29;20397;-91
2021/03/21 07:37:47;;;;;;;7.03;4.10;;;3.70;99.90;;;;;;4905696;29;20020;-92
2021/03/21 07:40:22;;;;;;;6.72;3.47;;;3.80;99.90;;;;;;4922237;29;20035;-92
2021/03/21 07:42:50;;;;;;;7.63;3.58;;;3.80;99.90;;;;;;4905849;29;20059;-92
2021/03/21 07:45:22;;;;;;;4.53;2.88;;;3.80;99.90;;;;;;4905562;29;20119;-91
2021/03/21 07:48:06;;;;;;;7.80;3.35;;;3.90;99.90;;;;;;4905688;29;20024;-92
2021/03/21 07:50:40;;;;;;;8.65;3.67;;;3.90;99.90;;;;;;4921994;29;20029;-92
2021/03/21 07:53:25;;;;;;;11.82;2.90;;;3.90;99.90;;;;;;4905114;29;20449;-90
2021/03/21 07:55:59;;;;;;;7.38;3.40;;;3.90;99.90;;;;;;4905560;29;20054;-91
2021/03/21 07:58:37;;;;;;;5.00;3.20;;;3.90;99.90;;;;;;4905562;29;20127;-91
2021/03/21 08:01:03;;;;;;;5.10;2.90;;;3.90;99.90;;;;;;4905987;29;20118;-91
2021/03/21 08:03:47;;;;;;;9.32;3.33;;;3.90;99.90;;;;;;4905323;29;20035;-91
2021/03/21 08:06:20;;;;;;;7.00;3.67;;;4.00;99.90;;;;;;4921972;29;20028;-91
2021/03/21 08:08:55;;;;;;;7.30;3.33;;;4.00;99.90;;;;;;4922491;29;20024;-92
2021/03/21 08:11:28;;;;;;;7.32;3.22;;;4.10;99.90;;;;;;4904733;29;20079;-92
2021/03/21 08:14:02;;;;;;;5.82;3.30;;;4.10;99.90;;;;;;4922153;29;20498;-92
2021/03/21 08:16:36;;;;;;;4.63;3.00;;;4.20;99.90;;;;;;4921869;29;20032;-92
2021/03/21 08:19:02;;;;;;;5.50;3.10;;;4.30;99.90;;;;;;4921646;29;20473;-92
2021/03/21 08:21:32;;;;;;;7.35;3.42;;;4.30;99.90;;;;;;4905088;29;20031;-92
2021/03/21 08:24:09;;;;;;;6.28;3.28;;;4.40;99.90;;;;;;4904666;29;20555;-92
2021/03/21 08:26:35;;;;;;;4.72;3.15;;;4.40;99.90;;;;;;4904894;29;20051;-92
2021/03/21 08:29:06;;;;;;;5.85;3.22;;;4.30;99.90;;;;;;4904202;29;20052;-91
2021/03/21 08:31:45;;;;;;;13.20;3.70;;;4.30;99.90;;;;;;4921080;29;20064;-92
2021/03/21 08:34:45;;;;;;;10.23;3.50;;;4.40;99.90;;;;;;4921366;29;20029;-92
2021/03/21 08:37:17;;;;;;;7.80;3.80;;;4.40;99.90;;;;;;4904775;29;20028;-92
2021/03/21 08:39:46;;;;;;;7.13;3.80;;;4.40;99.90;;;;;;4904825;29;20083;-92
2021/03/21 08:42:31;;;;;;;8.88;3.85;;;4.30;99.90;;;;;;4904629;29;20052;-92
2021/03/21 08:45:29;;;;;;;8.45;3.33;;;4.40;99.90;;;;;;4905027;29;20119;-92
2021/03/21 08:48:20;;;;;;;6.20;3.50;;;4.40;99.90;;;;;;4840438;29;20064;-92
2021/03/21 08:50:52;;;;;;;7.35;4.05;;;4.40;99.90;;;;;;4904639;29;20106;-92
2021/03/21 08:53:57;;;;;;;7.50;3.63;;;4.50;99.90;;;;;;4904653;29;20032;-92
2021/03/21 08:56:28;;;;;;;7.80;3.40;;;4.40;99.90;;;;;;4904416;29;20035;-92
2021/03/21 08:59:19;;;;;;;8.63;4.30;;;4.40;99.90;;;;;;4904344;29;20089;-92
2021/03/21 09:02:04;;;;;;;12.75;6.55;;;4.50;99.90;;;;;;4891870;29;20039;-91
2021/03/21 09:04:30;;;;;;;7.10;4.68;;;4.50;99.90;;;;;;4904239;29;20484;-92
2021/03/21 09:07:18;;;;;;;7.10;3.55;;;4.40;99.90;;;;;;4904029;29;20028;-92
2021/03/21 09:09:44;;;;;;;7.80;4.22;;;4.40;99.90;;;;;;4920643;29;20028;-92
2021/03/21 09:12:25;;;;;;;13.15;5.75;;;4.40;99.90;;;;;;4904608;29;20083;-93
2021/03/21 09:14:51;;;;;;;12.95;5.40;;;4.30;99.90;;;;;;4904449;29;20035;-92
2021/03/21 09:17:19;;;;;;;6.82;4.03;;;4.30;99.90;;;;;;4904300;29;20492;-91
2021/03/21 09:19:47;;;;;;;9.80;5.10;;;4.30;99.90;;;;;;4903643;29;20032;-92
2021/03/21 09:22:31;;;;;;;7.05;4.05;;;4.30;99.90;;;;;;4904075;29;20028;-93
2021/03/21 09:25:10;;;;;;;8.70;3.80;;;4.40;99.90;;;;;;4904028;29;20020;-92
2021/03/21 09:27:40;;;;;;;6.47;4.05;;;4.50;99.90;;;;;;4903571;29;20536;-93
2021/03/21 09:30:43;;;;;;;5.00;3.60;;;4.60;99.90;;;;;;4903832;29;20091;-91
2021/03/21 09:33:18;;;;;;;8.43;3.80;;;4.60;99.90;;;;;;4825805;29;20035;-92
2021/03/21 09:36:12;;;;;;;5.63;3.90;;;4.50;99.90;;;;;;4893935;29;20036;-91
2021/03/21 09:38:49;;;;;;;6.32;3.85;;;4.60;99.90;;;;;;4903322;29;20484;-92
2021/03/21 09:41:16;;;;;;;6.13;3.78;;;4.40;99.90;;;;;;4919637;29;20047;-92
2021/03/21 09:43:42;;;;;;;6.40;3.85;;;4.40;99.90;;;;;;4903308;29;20100;-93
2021/03/21 09:46:26;;;;;;;7.05;3.95;;;4.40;99.90;;;;;;4903492;29;20052;-92
2021/03/21 09:49:15;;;;;;;10.38;3.85;;;4.30;99.90;;;;;;4903225;29;20016;-92
2021/03/21 09:52:03;;;;;;;6.78;3.97;;;4.30;99.90;;;;;;4903569;29;20028;-92
2021/03/21 09:54:34;;;;;;;10.93;4.38;;;4.00;99.90;;;;;;4921333;29;20016;-91
2021/03/21 09:57:15;;;;;;;11.65;4.65;;;4.00;99.90;;;;;;4912353;29;20028;-91
2021/03/21 09:59:55;;;;;;;9.73;4.13;;;4.20;99.90;;;;;;4903327;29;20123;-88
2021/03/21 10:02:20;;;;;;;6.85;4.18;;;4.40;99.90;;;;;;4904431;29;20063;-92
2021/03/21 10:05:18;;;;;;;7.45;4.22;;;4.50;99.90;;;;;;4902833;29;20024;-92
2021/03/21 10:07:51;;;;;;;7.78;4.90;;;4.60;99.90;;;;;;4903730;29;20024;-92
2021/03/21 10:10:23;;;;;;;8.48;4.53;;;4.60;99.90;;;;;;4903154;29;20044;-92
2021/03/21 10:12:50;;;;;;;9.32;5.20;;;4.80;99.90;;;;;;4903349;29;20489;-92
2021/03/21 10:15:22;;;;;;;7.95;4.30;;;4.90;99.90;;;;;;4902758;29;20119;-92
2021/03/21 10:17:50;;;;;;;20.30;5.35;;;5.00;99.90;;;;;;4902601;29;20067;-92
2021/03/21 10:20:19;;;;;;;7.72;4.85;;;5.10;99.90;;;;;;4902596;29;20030;-92
2021/03/21 10:22:44;;;;;;;14.27;6.10;;;5.20;99.90;;;;;;4902388;29;20508;-92
2021/03/21 10:25:10;;;;;;;9.55;5.00;;;5.20;99.90;;;;;;4902589;29;20024;-92
2021/03/21 10:27:45;;;;;;;8.98;4.68;;;5.40;99.90;;;;;;4902404;29;20028;-93
2021/03/21 10:30:24;;;;;;;10.70;5.22;;;5.40;99.90;;;;;;4902552;29;20028;-93
2021/03/21 10:33:13;;;;;;;9.85;4.13;;;5.50;99.90;;;;;;4902509;29;20359;-92
2021/03/21 10:35:41;;;;;;;7.43;4.50;;;5.50;99.90;;;;;;4888182;29;20043;-93
2021/03/21 10:38:10;;;;;;;9.05;4.88;;;5.60;99.90;;;;;;4902448;29;20411;-92
2021/03/21 10:40:42;;;;;;;11.13;6.30;;;5.70;99.90;;;;;;4902593;29;20056;-92
2021/03/21 10:43:17;;;;;;;9.65;6.45;;;5.70;99.90;;;;;;4902611;29;20046;-93
2021/03/21 10:45:42;;;;;;;9.38;6.47;;;5.70;99.90;;;;;;4902462;29;20052;-92
2021/03/21 10:48:14;;;;;;;11.32;7.00;;;5.60;99.90;;;;;;4902279;29;20035;-93
2021/03/21 10:50:45;;;;;;;10.45;7.63;;;5.70;99.90;;;;;;4901924;29;20085;-93
2021/03/21 10:53:34;;;;;;;12.10;8.75;;;5.70;99.90;;;;;;4919127;29;20056;-92
2021/03/21 10:56:04;;;;;;;12.25;8.13;;;5.50;99.90;;;;;;4902872;29;20036;-92
2021/03/21 10:58:35;;;;;;;14.38;10.95;;;5.60;99.90;;;;;;4902675;29;20036;-93
2021/03/21 11:01:16;;;;;;;14.80;10.50;;;5.40;99.90;;;;;;4919602;29;20028;-93
2021/03/21 11:03:47;;;;;;;13.95;9.35;;;5.60;99.90;;;;;;4902423;29;20134;-93
2021/03/21 11:06:19;;;;;;;19.17;10.75;;;5.60;99.90;;;;;;4902319;29;20060;-92
2021/03/21 11:08:46;;;;;;;15.75;10.88;;;5.70;99.90;;;;;;4905611;29;20028;-92
2021/03/21 11:11:31;;;;;;;17.38;13.00;;;5.90;99.90;;;;;;4902776;29;20035;-93
2021/03/21 11:14:29;;;;;;;19.10;13.13;;;6.10;99.90;;;;;;4902946;29;20027;-93
2021/03/21 11:16:58;;;;;;;17.70;11.48;;;6.20;99.90;;;;;;4902924;29;20464;-93
2021/03/21 11:19:35;;;;;;;16.70;11.30;;;6.40;99.90;;;;;;4902844;29;20087;-93
2021/03/21 11:22:30;;;;;;;14.13;10.18;;;6.50;99.90;;;;;;4901902;29;20091;-91
2021/03/21 11:24:56;;;;;;;12.40;8.77;;;6.70;99.90;;;;;;4901048;29;20032;-93
2021/03/21 11:27:32;;;;;;;15.73;10.55;;;6.80;99.90;;;;;;4901772;29;20048;-91
2021/03/21 11:30:28;;;;;;;12.60;8.95;;;6.80;99.90;;;;;;4902175;29;20021;-92
2021/03/21 11:33:17;;;;;;;10.75;8.45;;;7.00;99.90;;;;;;4883467;29;20032;-93
2021/03/21 11:35:43;;;;;;;10.45;7.75;;;7.00;99.90;;;;;;4903072;29;20461;-94
2021/03/21 11:38:33;;;;;;;11.00;7.88;;;7.00;99.90;;;;;;4902329;29;20052;-93
2021/03/21 11:41:00;;;;;;;11.88;8.20;;;6.90;99.90;;;;;;4901470;29;20031;-93
2021/03/21 11:43:29;;;;;;;12.48;8.98;;;7.00;99.90;;;;;;4901823;29;20084;-92
2021/03/21 11:46:13;;;;;;;11.70;9.23;;;7.20;99.90;;;;;;4918795;29;20477;-93
2021/03/21 11:48:40;;;;;;;15.37;10.57;;;7.80;99.90;;;;;;4902267;29;20111;-93
2021/03/21 11:51:07;;;;;;;8.68;6.22;;;8.30;99.90;;;;;;4902435;29;20632;-93
2021/03/21 11:53:37;;;;;;;13.77;9.20;;;8.10;99.90;;;;;;4902372;29;20028;-93
2021/03/21 11:56:22;;;;;;;17.25;12.32;;;8.10;99.90;;;;;;4902398;29;20067;-93
2021/03/21 11:59:02;;;;;;;11.90;8.40;;;8.10;99.90;;;;;;4902122;29;20079;-92
2021/03/21 12:01:40;;;;;;;11.73;7.80;;;7.70;99.90;;;;;;4901667;29;20028;-92
2021/03/21 12:04:09;;;;;;;12.95;8.00;;;7.40;99.90;;;;;;4904041;29;20146;-93
2021/03/21 12:06:51;;;;;;;5.93;4.75;;;7.20;99.90;;;;;;4905342;29;20024;-92
2021/03/21 12:09:29;;;;;;;6.85;4.70;;;7.10;99.90;;;;;;4904673;29;20053;-93
2021/03/21 12:11:58;;;;;;;6.32;4.68;;;6.90;99.90;;;;;;4905338;29;20028;-91
2021/03/21 12:14:33;;;;;;;6.55;4.68;;;6.80;99.90;;;;;;4904821;29;20472;-92
2021/03/21 12:17:23;;;;;;;8.07;5.68;;;6.50;99.90;;;;;;4904760;29;20083;-93
2021/03/21 12:19:53;;;;;;;7.63;4.95;;;6.50;99.90;;;;;;4921606;29;20024;-92
2021/03/21 12:22:37;;;;;;;6.07;4.35;;;6.30;99.90;;;;;;4921954;29;20032;-92
2021/03/21 12:25:28;;;;;;;5.03;3.83;;;6.20;99.90;;;;;;4904934;29;20485;-92
2021/03/21 12:28:03;;;;;;;6.03;3.80;;;6.10;99.90;;;;;;4905316;29;20144;-92
2021/03/21 12:30:42;;;;;;;4.60;3.33;;;6.20;99.90;;;;;;4904798;29;20119;-92
2021/03/21 12:33:14;;;;;;;6.57;3.22;;;6.30;99.90;;;;;;4904293;29;20034;-92
2021/03/21 12:35:41;;;;;;;3.72;2.88;;;6.40;99.90;;;;;;4905017;29;20055;-92
2021/03/21 12:38:32;;;;;;;5.68;3.53;;;6.40;99.90;;;;;;4904740;29;20502;-92
2021/03/21 12:41:30;;;;;;;5.82;3.17;;;6.60;99.90;;;;;;4904293;29;20507;-92
2021/03/21 12:44:23;;;;;;;3.58;2.95;;;6.60;99.90;;;;;;4904544;29;20039;-92
2021/03/21 12:47:03;;;;;;;4.30;3.65;;;6.60;99.90;;;;;;4921386;29;20071;-92
2021/03/21 12:49:38;;;;;;;5.72;3.50;;;6.50;99.90;;;;;;4921436;29;20020;-93
2021/03/21 12:52:46;;;;;;;4.72;3.33;;;6.60;99.90;;;;;;4904844;29;20024;-92
2021/03/21 12:55:15;;;;;;;3.75;3.10;;;6.60;99.90;;;;;;4904355;29;20060;-93
2021/03/21 12:57:42;;;;;;;5.20;3.30;;;6.60;99.90;;;;;;4904637;29;20028;-92
2021/03/21 13:00:09;;;;;;;3.63;2.95;;;6.50;99.90;;;;;;4905398;29;20024;-92
2021/03/21 13:02:36;;;;;;;5.53;3.20;;;6.70;99.90;;;;;;4904269;29;20064;-93
2021/03/21 13:05:21;;;;;;;4.15;3.20;;;6.70;99.90;;;;;;4904515;29;20031;-91
2021/03/21 13:07:47;;;;;;;;;;;6.80;99.90;;;;;;4905121;29;20021;-92
2021/03/21 13:10:13;;;;;;;4.07;3.15;;;6.90;99.90;;;;;;4922863;29;19953;-92
2021/03/21 13:12:39;;;;;;;5.70;3.20;;;6.90;99.90;;;;;;4904609;29;20393;-91
2021/03/21 13:15:07;;;;;;;5.38;3.72;;;6.70;99.90;;;;;;4903337;29;20080;-91
2021/03/21 13:17:32;;;;;;;4.30;3.22;;;6.60;99.90;;;;;;4903536;29;20043;-91
2021/03/21 13:19:58;;;;;;;5.25;3.53;;;6.40;99.90;;;;;;4920728;29;20032;-93
2021/03/21 13:22:24;;;;;;;5.07;3.92;;;6.30;99.90;;;;;;4921082;29;20032;-91
2021/03/21 13:24:49;;;;;;;4.63;3.42;;;6.20;99.90;;;;;;4903956;29;20429;-90
2021/03/21 13:27:15;;;;;;;5.53;3.92;;;6.10;99.90;;;;;;4904149;29;20024;-92
2021/03/21 13:29:41;;;;;;;5.13;4.63;;;6.10;99.90;;;;;;4903811;29;20052;-91
2021/03/21 13:32:07;;;;;;;5.57;4.57;;;6.00;99.90;;;;;;4903693;29;20032;-91
2021/03/21 13:34:33;;;;;;;5.20;3.70;;;6.00;99.90;;;;;;4904002;29;20116;-90
2021/03/21 13:37:02;;;;;;;5.03;4.13;;;6.10;99.90;;;;;;4905589;29;20068;-91
2021/03/21 13:39:29;;;;;;;4.32;3.17;;;6.10;99.90;;;;;;4920966;29;20159;-91
2021/03/21 13:41:55;;;;;;;5.25;3.80;;;6.20;99.90;;;;;;4904352;29;20050;-89
2021/03/21 13:44:21;;;;;;;6.70;3.97;;;6.20;99.90;;;;;;4903503;29;20118;-91
2021/03/21 13:46:47;;;;;;;4.82;3.92;;;6.40;99.90;;;;;;4903935;29;20072;-91